Thunder radar more information blitzortung!


avis per Pluja more information rain snow radar


Visita la nostra xarxa de llocs de meteo:

Template documentation
and downloads

And another site



Rain From: 15-11-2018 00:00 Until: 23:59 warning for: Rain Level: Yellow info button

Pagina Historial Weather Underground text

Diari Resum January 11, 2018 Unitats:  Tant    Imperial   Mètric
« Previous Dia
SegĂźent Dia »
Diari Setmana Mensual Anual Personalitzada
  Maxima: Minima: Media:
Temperatura: TemperatureC °F /  -17.8 °C 2.4 °F /  -16.4 °C 7.4 °F /  -13.7 °C
Punt de rosada: DewpointC °F /  -17.8 °C -3.6 °F /  -19.8 °C -1 °F /  -18.3 °C
Humitat: Humidity % 47 % 55 %
Wind Speed: WindSpeedKMH mph /  0 km/h - 4.9 mph /  7.9 km/h
RĂ fegues de vent: WindSpeedGustKMH mph /  0 km/h - -
Vent:- - WSW
Pression baro: PressurehPa in /  0 hPa 1011.7 in /  34256.2 hPa -
Precipitacions: 0.0 in /  0 mm    
Historical Graphs
 
 
Dades de taula per January 11, 2018
Temps Temperatura Punt de rosada Pression baro Vent Wind Speed RĂ fegues de vent Humitat Rainfall Rate (Hourly)
TemperatureC °F /  -17.8 °C DewpointC °F /  -17.8 °C PressurehPa in /  0 hPa Calm     Humidity % HourlyPrecipMM in /  0 mm
00:15 6.5 °F /  -14.2 °C -0.9 °F /  -18.3 °C 1011.7 in /  34256.2 hPa WSW 3.2 mph /  5.1 km/h 6.4 mph /  10.3 km/h 59 % 0.0 in /  0 mm
00:25 6.3 °F /  -14.3 °C -1.1 °F /  -18.4 °C 1011.7 in /  34256.2 hPa Calm   3.2 mph /  5.1 km/h 59 % 0.0 in /  0 mm
00:35 6.2 °F /  -14.3 °C -1.2 °F /  -18.4 °C 1012.8 in /  34293.4 hPa WSW 1.6 mph /  2.6 km/h 4.8 mph /  7.7 km/h 59 % 0.0 in /  0 mm
00:45 6.2 °F /  -14.3 °C -1.2 °F /  -18.4 °C 1012.8 in /  34293.4 hPa West 1.6 mph /  2.6 km/h 6.4 mph /  10.3 km/h 59 % 0.0 in /  0 mm
00:55 6.3 °F /  -14.3 °C -1.1 °F /  -18.4 °C 1013.8 in /  34327.3 hPa Calm   3.2 mph /  5.1 km/h 59 % 0.0 in /  0 mm
01:05 6.4 °F /  -14.2 °C -1.1 °F /  -18.4 °C 1012.8 in /  34293.4 hPa West 3.2 mph /  5.1 km/h 8.0 mph /  12.9 km/h 59 % 0.0 in /  0 mm
01:20 6.4 °F /  -14.2 °C -1.3 °F /  -18.5 °C 1012.8 in /  34293.4 hPa WSW 1.6 mph /  2.6 km/h 3.2 mph /  5.1 km/h 58 % 0.0 in /  0 mm
01:30 6.3 °F /  -14.3 °C -1.1 °F /  -18.4 °C 1012.8 in /  34293.4 hPa WSW 3.2 mph /  5.1 km/h 6.4 mph /  10.3 km/h 59 % 0.0 in /  0 mm
01:40 6.4 °F /  -14.2 °C -1.3 °F /  -18.5 °C 1013.8 in /  34327.3 hPa WSW 3.2 mph /  5.1 km/h 6.4 mph /  10.3 km/h 58 % 0.0 in /  0 mm
01:50 6.4 °F /  -14.2 °C -1.3 °F /  -18.5 °C 1013.8 in /  34327.3 hPa WSW 3.2 mph /  5.1 km/h 6.4 mph /  10.3 km/h 58 % 0.0 in /  0 mm
02:00 6.3 °F /  -14.3 °C -1.4 °F /  -18.6 °C 1013.8 in /  34327.3 hPa West 1.6 mph /  2.6 km/h 6.4 mph /  10.3 km/h 58 % 0.0 in /  0 mm
02:10 6.1 °F /  -14.4 °C -1.8 °F /  -18.8 °C 1012.8 in /  34293.4 hPa West 3.2 mph /  5.1 km/h 4.8 mph /  7.7 km/h 57 % 0.0 in /  0 mm
02:20 6.0 °F /  -14.4 °C -1.9 °F /  -18.8 °C 1012.8 in /  34293.4 hPa West 3.2 mph /  5.1 km/h 4.8 mph /  7.7 km/h 57 % 0.0 in /  0 mm
02:30 6.0 °F /  -14.4 °C -1.9 °F /  -18.8 °C 1012.8 in /  34293.4 hPa West 3.2 mph /  5.1 km/h 4.8 mph /  7.7 km/h 57 % 0.0 in /  0 mm
02:40 6.0 °F /  -14.4 °C -1.9 °F /  -18.8 °C 1013.8 in /  34327.3 hPa WSW 1.6 mph /  2.6 km/h 9.7 mph /  15.6 km/h 57 % 0.0 in /  0 mm
02:50 5.8 °F /  -14.6 °C -2.1 °F /  -18.9 °C 1013.8 in /  34327.3 hPa West 1.6 mph /  2.6 km/h 1.6 mph /  2.6 km/h 57 % 0.0 in /  0 mm
03:00 5.8 °F /  -14.6 °C -2.1 °F /  -18.9 °C 1013.8 in /  34327.3 hPa WNW 3.2 mph /  5.1 km/h 6.4 mph /  10.3 km/h 57 % 0.0 in /  0 mm
03:10 5.7 °F /  -14.6 °C -2.2 °F /  -19 °C 1013.8 in /  34327.3 hPa NNW 3.2 mph /  5.1 km/h 3.2 mph /  5.1 km/h 57 % 0.0 in /  0 mm
03:20 5.8 °F /  -14.6 °C -2.1 °F /  -18.9 °C 1013.8 in /  34327.3 hPa North 1.6 mph /  2.6 km/h 3.2 mph /  5.1 km/h 57 % 0.0 in /  0 mm
03:40 7.1 °F /  -13.8 °C -0.8 °F /  -18.2 °C 1012.8 in /  34293.4 hPa Calm   3.2 mph /  5.1 km/h 57 % 0.0 in /  0 mm
03:50 7.3 °F /  -13.7 °C -0.9 °F /  -18.3 °C 1013.8 in /  34327.3 hPa South 1.6 mph /  2.6 km/h 4.8 mph /  7.7 km/h 56 % 0.0 in /  0 mm
04:00 7.6 °F /  -13.6 °C -0.6 °F /  -18.1 °C 1013.8 in /  34327.3 hPa SSW 3.2 mph /  5.1 km/h 3.2 mph /  5.1 km/h 56 % 0.0 in /  0 mm
04:20 8.3 °F /  -13.2 °C -0.2 °F /  -17.9 °C 1013.8 in /  34327.3 hPa SW 3.2 mph /  5.1 km/h 6.4 mph /  10.3 km/h 55 % 0.0 in /  0 mm
04:30 8.5 °F /  -13.1 °C -0.3 °F /  -17.9 °C 1013.8 in /  34327.3 hPa WSW 3.2 mph /  5.1 km/h 4.8 mph /  7.7 km/h 54 % 0.0 in /  0 mm
10:50 9.1 °F /  -12.7 °C 0.0 °F /  -17.8 °C 1013.8 in /  34327.3 hPa West 5.6 mph /  9 km/h 5.6 mph /  9 km/h 53 % 0.0 in /  0 mm
11:24 9.8 °F /  -12.3 °C 0.7 °F /  -17.4 °C 1013.8 in /  34327.3 hPa WNW 13.0 mph /  20.9 km/h 13.0 mph /  20.9 km/h 53 % 0.0 in /  0 mm
11:30 9.7 °F /  -12.4 °C 0.3 °F /  -17.6 °C 1013.8 in /  34327.3 hPa WNW 7.4 mph /  11.9 km/h 7.4 mph /  11.9 km/h 52 % 0.0 in /  0 mm
11:36 9.9 °F /  -12.3 °C 0.5 °F /  -17.5 °C 1013.8 in /  34327.3 hPa WSW 5.6 mph /  9 km/h 5.6 mph /  9 km/h 52 % 0.0 in /  0 mm
11:43 9.8 °F /  -12.3 °C 0.4 °F /  -17.6 °C 1013.8 in /  34327.3 hPa SW 13.7 mph /  22 km/h 13.7 mph /  22 km/h 52 % 0.0 in /  0 mm
11:48 9.8 °F /  -12.3 °C 0.4 °F /  -17.6 °C 1013.8 in /  34327.3 hPa West 14.8 mph /  23.8 km/h 14.8 mph /  23.8 km/h 52 % 0.0 in /  0 mm
11:53 9.9 °F /  -12.3 °C 0.2 °F /  -17.7 °C 1012.8 in /  34293.4 hPa West 10.3 mph /  16.6 km/h 10.3 mph /  16.6 km/h 51 % 0.0 in /  0 mm
11:59 10.2 °F /  -12.1 °C 0.5 °F /  -17.5 °C 1012.8 in /  34293.4 hPa NW 13.0 mph /  20.9 km/h 13.0 mph /  20.9 km/h 51 % 0.0 in /  0 mm
12:35 11.1 °F /  -11.6 °C 1.3 °F /  -17.1 °C 1012.8 in /  34293.4 hPa SW 6.4 mph /  10.3 km/h 6.4 mph /  10.3 km/h 51 % 0.0 in /  0 mm
12:48 11.3 °F /  -11.5 °C 1.5 °F /  -16.9 °C 1012.8 in /  34293.4 hPa North 2.3 mph /  3.7 km/h 2.6 mph /  4.2 km/h 51 % 0.0 in /  0 mm
13:19 11.3 °F /  -11.5 °C 0.9 °F /  -17.3 °C 1013.8 in /  34327.3 hPa North 7.4 mph /  11.9 km/h 7.4 mph /  11.9 km/h 49 % 0.0 in /  0 mm
13:25 11.3 °F /  -11.5 °C 0.9 °F /  -17.3 °C 1013.8 in /  34327.3 hPa NNW 13.0 mph /  20.9 km/h 13.0 mph /  20.9 km/h 49 % 0.0 in /  0 mm
13:30 11.2 °F /  -11.6 °C 0.9 °F /  -17.3 °C 1013.8 in /  34327.3 hPa WNW 9.3 mph /  15 km/h 9.3 mph /  15 km/h 49 % 0.0 in /  0 mm
13:45 11.5 °F /  -11.4 °C 1.2 °F /  -17.1 °C 1013.8 in /  34327.3 hPa WNW 9.3 mph /  15 km/h 9.3 mph /  15 km/h 49 % 0.0 in /  0 mm
13:56 11.6 °F /  -11.3 °C 1.2 °F /  -17.1 °C 1013.8 in /  34327.3 hPa NNW 9.3 mph /  15 km/h 9.3 mph /  15 km/h 49 % 0.0 in /  0 mm
14:15 11.7 °F /  -11.3 °C 1.6 °F /  -16.9 °C 1013.8 in /  34327.3 hPa NW 5.3 mph /  8.5 km/h 5.3 mph /  8.5 km/h 50 % 0.0 in /  0 mm
14:23 11.5 °F /  -11.4 °C 1.2 °F /  -17.1 °C 1013.8 in /  34327.3 hPa South 5.6 mph /  9 km/h 5.6 mph /  9 km/h 49 % 0.0 in /  0 mm
14:33 11.6 °F /  -11.3 °C 1.2 °F /  -17.1 °C 1013.8 in /  34327.3 hPa NNW 9.3 mph /  15 km/h 9.3 mph /  15 km/h 49 % 0.0 in /  0 mm
14:41 11.7 °F /  -11.3 °C 1.3 °F /  -17.1 °C 1013.8 in /  34327.3 hPa WSW 11.1 mph /  17.9 km/h 11.1 mph /  17.9 km/h 49 % 0.0 in /  0 mm
15:04 11.7 °F /  -11.3 °C 1.1 °F /  -17.2 °C 1013.8 in /  34327.3 hPa West 13.0 mph /  20.9 km/h 13.0 mph /  20.9 km/h 48 % 0.0 in /  0 mm
15:27 12.7 °F /  -10.7 °C 1.9 °F /  -16.7 °C 1013.8 in /  34327.3 hPa SSE 7.4 mph /  11.9 km/h 7.4 mph /  11.9 km/h 48 % 0.0 in /  0 mm
15:35 12.7 °F /  -10.7 °C 1.9 °F /  -16.7 °C 1013.8 in /  34327.3 hPa NW 9.3 mph /  15 km/h 9.3 mph /  15 km/h 48 % 0.0 in /  0 mm
15:47 12.5 °F /  -10.8 °C 1.8 °F /  -16.8 °C 1013.8 in /  34327.3 hPa West 11.1 mph /  17.9 km/h 11.1 mph /  17.9 km/h 48 % 0.0 in /  0 mm
15:52 12.4 °F /  -10.9 °C 1.4 °F /  -17 °C 1013.8 in /  34327.3 hPa West 9.7 mph /  15.6 km/h 9.7 mph /  15.6 km/h 47 % 0.0 in /  0 mm
15:57 12.5 °F /  -10.8 °C 1.5 °F /  -16.9 °C 1013.8 in /  34327.3 hPa West 9.3 mph /  15 km/h 9.3 mph /  15 km/h 47 % 0.0 in /  0 mm
16:10 12.4 °F /  -10.9 °C 1.4 °F /  -17 °C 1013.8 in /  34327.3 hPa West 9.5 mph /  15.3 km/h 9.5 mph /  15.3 km/h 47 % 0.0 in /  0 mm
16:21 12.3 °F /  -10.9 °C 1.3 °F /  -17.1 °C 1013.8 in /  34327.3 hPa WNW 9.3 mph /  15 km/h 9.3 mph /  15 km/h 47 % 0.0 in /  0 mm
16:35 12.2 °F /  -11 °C 1.2 °F /  -17.1 °C 1013.8 in /  34327.3 hPa WNW 5.6 mph /  9 km/h 5.6 mph /  9 km/h 47 % 0.0 in /  0 mm
16:47 12.1 °F /  -11.1 °C 1.1 °F /  -17.2 °C 1013.8 in /  34327.3 hPa WSW 9.3 mph /  15 km/h 9.3 mph /  15 km/h 47 % 0.0 in /  0 mm
16:53 12.0 °F /  -11.1 °C 1.0 °F /  -17.2 °C 1013.8 in /  34327.3 hPa WSW 9.3 mph /  15 km/h 9.3 mph /  15 km/h 47 % 0.0 in /  0 mm
16:58 11.9 °F /  -11.2 °C 0.9 °F /  -17.3 °C 1013.8 in /  34327.3 hPa WSW 7.4 mph /  11.9 km/h 7.4 mph /  11.9 km/h 47 % 0.0 in /  0 mm
17:07 11.7 °F /  -11.3 °C 0.7 °F /  -17.4 °C 1014.8 in /  34361.1 hPa West 9.3 mph /  15 km/h 9.3 mph /  15 km/h 47 % 0.0 in /  0 mm
17:20 11.5 °F /  -11.4 °C 0.6 °F /  -17.4 °C 1014.8 in /  34361.1 hPa West 4.7 mph /  7.6 km/h 4.7 mph /  7.6 km/h 47 % 0.0 in /  0 mm
17:32 11.1 °F /  -11.6 °C 0.5 °F /  -17.5 °C 1014.8 in /  34361.1 hPa West 3.2 mph /  5.1 km/h   48 % 0.0 in /  0 mm
17:38 10.8 °F /  -11.8 °C 0.2 °F /  -17.7 °C 1014.8 in /  34361.1 hPa West 6.1 mph /  9.8 km/h 6.1 mph /  9.8 km/h 48 % 0.0 in /  0 mm
17:46 10.5 °F /  -11.9 °C -0.1 °F /  -17.8 °C 1014.8 in /  34361.1 hPa West 7.4 mph /  11.9 km/h 7.4 mph /  11.9 km/h 48 % 0.0 in /  0 mm
17:53 10.3 °F /  -12.1 °C -0.2 °F /  -17.9 °C 1015.8 in /  34395 hPa WSW 3.7 mph /  6 km/h 3.7 mph /  6 km/h 48 % 0.0 in /  0 mm
18:09 9.9 °F /  -12.3 °C -0.6 °F /  -18.1 °C 1015.8 in /  34395 hPa WSW 3.7 mph /  6 km/h 3.7 mph /  6 km/h 48 % 0.0 in /  0 mm
18:14 9.8 °F /  -12.3 °C -0.7 °F /  -18.2 °C 1015.8 in /  34395 hPa South 4.7 mph /  7.6 km/h 4.7 mph /  7.6 km/h 48 % 0.0 in /  0 mm
18:30 5.3 °F /  -14.8 °C -2.1 °F /  -18.9 °C 1017.8 in /  34462.7 hPa Calm   4.8 mph /  7.7 km/h 59 % 0.0 in /  0 mm
18:40 5.2 °F /  -14.9 °C -2.2 °F /  -19 °C 1017.8 in /  34462.7 hPa West 1.6 mph /  2.6 km/h 6.4 mph /  10.3 km/h 59 % 0.0 in /  0 mm
18:46 9.1 °F /  -12.7 °C -1.1 °F /  -18.4 °C 1014.8 in /  34361.1 hPa NNE 4.7 mph /  7.6 km/h 4.7 mph /  7.6 km/h 49 % 0.0 in /  0 mm
18:50 5.1 °F /  -14.9 °C -2.1 °F /  -18.9 °C 1017.8 in /  34462.7 hPa Calm   4.8 mph /  7.7 km/h 60 % 0.0 in /  0 mm
18:58 8.9 °F /  -12.8 °C -1.3 °F /  -18.5 °C 1015.8 in /  34395 hPa WNW 5.6 mph /  9 km/h 5.6 mph /  9 km/h 49 % 0.0 in /  0 mm
19:00 5.0 °F /  -15 °C -2.1 °F /  -18.9 °C 1017.8 in /  34462.7 hPa Calm   3.2 mph /  5.1 km/h 60 % 0.0 in /  0 mm
19:10 4.9 °F /  -15.1 °C -2.0 °F /  -18.9 °C 1017.8 in /  34462.7 hPa Calm   3.2 mph /  5.1 km/h 61 % 0.0 in /  0 mm
19:20 4.8 °F /  -15.1 °C -2.1 °F /  -18.9 °C 1017.8 in /  34462.7 hPa Calm   3.2 mph /  5.1 km/h 61 % 0.0 in /  0 mm
19:30 4.8 °F /  -15.1 °C -2.1 °F /  -18.9 °C 1017.8 in /  34462.7 hPa Calm   3.2 mph /  5.1 km/h 61 % 0.0 in /  0 mm
19:31 8.5 °F /  -13.1 °C -1.3 °F /  -18.5 °C 1014.8 in /  34361.1 hPa WNW 7.4 mph /  11.9 km/h 7.4 mph /  11.9 km/h 50 % 0.0 in /  0 mm
19:40 4.7 °F /  -15.2 °C -2.2 °F /  -19 °C 1017.8 in /  34462.7 hPa WSW 3.2 mph /  5.1 km/h 6.4 mph /  10.3 km/h 61 % 0.0 in /  0 mm
19:50 4.7 °F /  -15.2 °C -2.2 °F /  -19 °C 1017.8 in /  34462.7 hPa WSW 1.6 mph /  2.6 km/h 4.8 mph /  7.7 km/h 61 % 0.0 in /  0 mm
19:51 8.2 °F /  -13.2 °C -1.3 °F /  -18.5 °C 1015.8 in /  34395 hPa WSW 5.6 mph /  9 km/h 5.6 mph /  9 km/h 51 % 0.0 in /  0 mm
19:57 8.1 °F /  -13.3 °C -1.4 °F /  -18.6 °C 1015.8 in /  34395 hPa WSW 4.7 mph /  7.6 km/h 4.7 mph /  7.6 km/h 51 % 0.0 in /  0 mm
20:00 4.6 °F /  -15.2 °C -2.3 °F /  -19.1 °C 1017.8 in /  34462.7 hPa WSW 3.2 mph /  5.1 km/h 3.2 mph /  5.1 km/h 61 % 0.0 in /  0 mm
20:10 4.4 °F /  -15.3 °C -2.3 °F /  -19.1 °C 1017.8 in /  34462.7 hPa SW 3.2 mph /  5.1 km/h 3.2 mph /  5.1 km/h 62 % 0.0 in /  0 mm
20:11 8.0 °F /  -13.3 °C -1.6 °F /  -18.7 °C 1015.8 in /  34395 hPa WSW 9.3 mph /  15 km/h 9.3 mph /  15 km/h 51 % 0.0 in /  0 mm
20:18 7.9 °F /  -13.4 °C -1.6 °F /  -18.7 °C 1015.8 in /  34395 hPa WSW 9.3 mph /  15 km/h 9.3 mph /  15 km/h 51 % 0.0 in /  0 mm
20:20 4.2 °F /  -15.4 °C -2.4 °F /  -19.1 °C 1017.8 in /  34462.7 hPa SW 1.6 mph /  2.6 km/h 3.2 mph /  5.1 km/h 62 % 0.0 in /  0 mm
20:23 7.9 °F /  -13.4 °C -1.4 °F /  -18.6 °C 1015.8 in /  34395 hPa WNW 9.3 mph /  15 km/h 9.3 mph /  15 km/h 52 % 0.0 in /  0 mm
20:30 4.2 °F /  -15.4 °C -2.4 °F /  -19.1 °C 1017.8 in /  34462.7 hPa WSW 3.2 mph /  5.1 km/h 3.2 mph /  5.1 km/h 62 % 0.0 in /  0 mm
20:40 4.2 °F /  -15.4 °C -2.2 °F /  -19 °C 1017.8 in /  34462.7 hPa WSW 1.6 mph /  2.6 km/h 3.2 mph /  5.1 km/h 63 % 0.0 in /  0 mm
20:42 7.5 °F /  -13.6 °C -1.7 °F /  -18.7 °C 1015.8 in /  34395 hPa West 11.1 mph /  17.9 km/h 11.1 mph /  17.9 km/h 52 % 0.0 in /  0 mm
20:47 7.5 °F /  -13.6 °C -1.5 °F /  -18.6 °C 1015.8 in /  34395 hPa WSW 5.3 mph /  8.5 km/h   53 % 0.0 in /  0 mm
20:50 3.9 °F /  -15.6 °C -2.5 °F /  -19.2 °C 1018.8 in /  34496.6 hPa WSW 1.6 mph /  2.6 km/h 3.2 mph /  5.1 km/h 63 % 0.0 in /  0 mm
21:00 3.8 °F /  -15.7 °C -2.6 °F /  -19.2 °C 1018.8 in /  34496.6 hPa Calm     63 % 0.0 in /  0 mm
21:10 3.7 °F /  -15.7 °C -2.5 °F /  -19.2 °C 1018.8 in /  34496.6 hPa Calm     64 % 0.0 in /  0 mm
21:20 3.7 °F /  -15.7 °C -2.5 °F /  -19.2 °C 1018.8 in /  34496.6 hPa WNW 1.6 mph /  2.6 km/h 4.8 mph /  7.7 km/h 64 % 0.0 in /  0 mm
21:30 3.6 °F /  -15.8 °C -2.8 °F /  -19.3 °C 1018.8 in /  34496.6 hPa WNW 1.6 mph /  2.6 km/h 3.2 mph /  5.1 km/h 63 % 0.0 in /  0 mm
21:34 7.1 °F /  -13.8 °C -1.6 °F /  -18.7 °C 1016.8 in /  34428.8 hPa WSW 9.3 mph /  15 km/h 9.3 mph /  15 km/h 54 % 0.0 in /  0 mm
21:40 3.5 °F /  -15.8 °C -2.7 °F /  -19.3 °C 1018.8 in /  34496.6 hPa WNW 1.6 mph /  2.6 km/h 3.2 mph /  5.1 km/h 64 % 0.0 in /  0 mm
21:50 6.9 °F /  -13.9 °C -1.6 °F /  -18.7 °C 1017.5 in /  34452.6 hPa West 3.2 mph /  5.1 km/h 8.0 mph /  12.9 km/h 55 % 0.0 in /  0 mm
21:57 6.7 °F /  -14.1 °C -1.7 °F /  -18.7 °C 1017.8 in /  34462.7 hPa NW 6.1 mph /  9.8 km/h 6.1 mph /  9.8 km/h 55 % 0.0 in /  0 mm
22:00 3.0 °F /  -16.1 °C -3.2 °F /  -19.6 °C 1018.8 in /  34496.6 hPa Calm     64 % 0.0 in /  0 mm
22:04 6.7 °F /  -14.1 °C -1.7 °F /  -18.7 °C 1017.8 in /  34462.7 hPa WSW 5.6 mph /  9 km/h 5.6 mph /  9 km/h 55 % 0.0 in /  0 mm
22:10 3.0 °F /  -16.1 °C -2.9 °F /  -19.4 °C 1018.8 in /  34496.6 hPa WSW 1.6 mph /  2.6 km/h 1.6 mph /  2.6 km/h 65 % 0.0 in /  0 mm
22:12 6.6 °F /  -14.1 °C -1.8 °F /  -18.8 °C 1017.8 in /  34462.7 hPa West 7.4 mph /  11.9 km/h 7.4 mph /  11.9 km/h 55 % 0.0 in /  0 mm
22:20 2.6 °F /  -16.3 °C -3.6 °F /  -19.8 °C 1018.8 in /  34496.6 hPa West 3.2 mph /  5.1 km/h 3.2 mph /  5.1 km/h 64 % 0.0 in /  0 mm
22:22 6.5 °F /  -14.2 °C -1.9 °F /  -18.8 °C 1018.8 in /  34496.6 hPa WSW 11.1 mph /  17.9 km/h 11.1 mph /  17.9 km/h 55 % 0.0 in /  0 mm
22:28 6.4 °F /  -14.2 °C -2.0 °F /  -18.9 °C 1018.8 in /  34496.6 hPa West 6.4 mph /  10.3 km/h 6.4 mph /  10.3 km/h 55 % 0.0 in /  0 mm
22:30 2.7 °F /  -16.3 °C -3.2 °F /  -19.6 °C 1018.8 in /  34496.6 hPa Calm   3.2 mph /  5.1 km/h 65 % 0.0 in /  0 mm
22:40 2.8 °F /  -16.2 °C -2.9 °F /  -19.4 °C 1019.9 in /  34533.8 hPa Calm   3.2 mph /  5.1 km/h 66 % 0.0 in /  0 mm
22:41 6.4 °F /  -14.2 °C -1.8 °F /  -18.8 °C 1016.8 in /  34428.8 hPa WNW 9.3 mph /  15 km/h 9.3 mph /  15 km/h 56 % 0.0 in /  0 mm
22:50 2.9 °F /  -16.2 °C -2.8 °F /  -19.3 °C 1018.8 in /  34496.6 hPa Calm   1.6 mph /  2.6 km/h 66 % 0.0 in /  0 mm
23:00 2.8 °F /  -16.2 °C -3.1 °F /  -19.5 °C 1018.8 in /  34496.6 hPa NNE 1.6 mph /  2.6 km/h 3.2 mph /  5.1 km/h 65 % 0.0 in /  0 mm
23:10 2.7 °F /  -16.3 °C -3.0 °F /  -19.4 °C 1018.8 in /  34496.6 hPa Calm   1.6 mph /  2.6 km/h 66 % 0.0 in /  0 mm
23:11 6.1 °F /  -14.4 °C -1.8 °F /  -18.8 °C 1017.8 in /  34462.7 hPa WNW 3.7 mph /  6 km/h 3.7 mph /  6 km/h 57 % 0.0 in /  0 mm
23:18 6.0 °F /  -14.4 °C -1.9 °F /  -18.8 °C 1017.8 in /  34462.7 hPa WNW 7.4 mph /  11.9 km/h 7.4 mph /  11.9 km/h 57 % 0.0 in /  0 mm
23:20 2.6 °F /  -16.3 °C -3.1 °F /  -19.5 °C 1019.9 in /  34533.8 hPa Calm   1.6 mph /  2.6 km/h 66 % 0.0 in /  0 mm
23:25 6.0 °F /  -14.4 °C -1.9 °F /  -18.8 °C 1017.8 in /  34462.7 hPa West 7.4 mph /  11.9 km/h 7.4 mph /  11.9 km/h 57 % 0.0 in /  0 mm
23:30 2.6 °F /  -16.3 °C -3.1 °F /  -19.5 °C 1019.9 in /  34533.8 hPa NW 1.6 mph /  2.6 km/h 1.6 mph /  2.6 km/h 66 % 0.0 in /  0 mm
23:37 5.8 °F /  -14.6 °C -1.8 °F /  -18.8 °C 1017.8 in /  34462.7 hPa West 5.6 mph /  9 km/h 5.6 mph /  9 km/h 58 % 0.0 in /  0 mm
23:40 2.4 °F /  -16.4 °C -3.5 °F /  -19.7 °C 1019.9 in /  34533.8 hPa West 3.2 mph /  5.1 km/h 4.8 mph /  7.7 km/h 65 % 0.0 in /  0 mm
23:42 5.8 °F /  -14.6 °C -1.8 °F /  -18.8 °C 1017.8 in /  34462.7 hPa West 7.4 mph /  11.9 km/h 7.4 mph /  11.9 km/h 58 % 0.0 in /  0 mm
23:50 2.4 °F /  -16.4 °C -3.3 °F /  -19.6 °C 1019.9 in /  34533.8 hPa Calm   4.8 mph /  7.7 km/h 66 % 0.0 in /  0 mm
Meteo Sesrovires
Elogis d' Weather Underground - 2 mb

Guio original per  Jim McMurry - jmcmurry@mwt.net Adaptat per a la plantilla per  Wim van der Kuil - Leuven-Template.eu

Trobareu la nostra informacio del temps tambe a:

Weather Underground

AWEKAS